Airfield :
LOGIN :

Register | Disclaimer

   EN    FR    IT 

 










Legend :    VFR   Marginal VFR   IFR   Intensive IFR   Very Intensive IFR
Visi :
Ceiling :
>= 8 km
>= 3000ft
5 to 8 km
1000 to 3000 ft
1500m to 5 km
500 to 1000 ft
800 to 1500m
200 to 500 ft
< 800m
< 200 ft
Symbols :   Thunderstorms  Fog  Heavy snow  Heavy precipitations  Wind > 20 kt
SIGMETs :     Misc.  Thunderstorms  Icing  Turbulence  Mountain Waves  Volcanic Ashes







- Airport Elevation : 220 ft
- IATA code : CWL
- Download approach charts


EGFF - Cardiff Rhoose

CURRENT METAR :
  • 251520Z VRB03KT 9999 2500E -DZ SCT004 BKN021 OVC029 18/18 Q1020

EXPIRED METARs :
  • 251450Z VRB04KT 1800 -DZ BR BKN003 17/17 Q1020
  • 251420Z 24003KT 4500 2000W -DZ BKN009 OVC021 17/16 Q1020
  • 251350Z 18003KT 4500 HZ BKN009 OVC021 18/16 Q1020
  • 251320Z AUTO VRB03KT 9999 SCT025 OVC031 19/17 Q1020
  • 251250Z 03005KT 9999 SCT016 SCT020 BKN026 19/17 Q1020

TAF AMD TAF EGFF
Valid from the 25 at 15:00 until the 26 at 12:00 UTC


251506Z 2515/2612 06006KT 2000 -DZ BR BKN003
BECMG 2515/2518 9999 NSW SCT015 BKN030
PROB30
TEMPO 2518/2523 8000 BKN014
TEMPO 2523/2612 8000 BKN010
PROB30
TEMPO 2601/2607 4500 BR BKN004
ATIS : +44 1446 729 319
No reported NOTAMs for that airfield.
1 SIGMET reported for the London FIR (EGTT) :
 
Embedded thunderstorms
EGTT SIGMET 04 VALID 251300/251700 EGRR
EGTT LONDON FIR EMBD TS FCST WI N5446 E00441 - N5302 W00002 - N5455 E00147 - N5500 E00214 - N5500 E00448 - N5446 E00441 TOP FL350 MOV NE 15KT WKN=



MET'MAP, your aeronautical weather chart ! - Copyright ORBIFLY December 2007 - Disclaimer

ORBIFLY MET'MAP TEAM :

Programming & Development : Alexandra Zaïnal
Concept & Development : Baudouin d'Aumeries
Co-Development & Prog : Marc-Olivier Méhu
Technical & hardware support : Manuel Goepfert

Contact : metmap@orbifly.com




SOURCES & CREDITS :

   NOAA